Terminal Aerodrome Forecast
Issued by NWS

Home | Current Version | Previous Version | Text Only | Print | Product List | Glossary Off
Versions: 1 2 3 4 5 6 7 8 9 10 11 12 13 14 15 16 17 18 19 20 21 22 23

000
FTUS43 KICT 270310 AAA
TAFCNU
TAF AMD
KCNU 270310Z 2703/2724 07009KT P6SM VCTS SCT020 BKN060CB
      TEMPO 2703/2705 VRB25G35KT 3SM TSRA BKN022CB
     FM270500 08009KT P6SM VCTS OVC060CB
     FM270700 09009KT P6SM OVC060
     FM271300 09007KT P6SM SCT010 BKN050
     FM271700 12013KT P6SM SCT050=

USA.gov is the U.S. government's official web portal to all federal, state and local government web resources and services.